createdAt,value
2017-04-03T00:00:44.198Z,7.23
2017-04-03T00:01:44.206Z,9.20
2017-04-03T00:02:44.334Z,8.32
2017-04-03T00:03:44.474Z,6.28
2017-04-03T00:04:45.714Z,8.45
2017-04-03T00:05:46.462Z,7.92
2017-04-03T00:06:46.536Z,10.02
2017-04-03T00:07:47.333Z,5.60
2017-04-03T00:08:47.453Z,7.18
2017-04-03T00:09:47.999Z,7.02
2017-04-03T00:10:48.797Z,7.53
2017-04-03T00:11:48.853Z,6.42
2017-04-03T00:12:48.971Z,7.92
2017-04-03T00:13:49.167Z,6.35
2017-04-03T00:14:49.572Z,7.72
2017-04-03T00:15:49.630Z,6.27
2017-04-03T00:16:49.627Z,4.57
2017-04-03T00:17:49.641Z,7.35
2017-04-03T00:18:49.687Z,6.00
2017-04-03T00:19:49.988Z,6.13
2017-04-03T00:20:50.064Z,6.63
2017-04-03T00:21:50.510Z,5.78
2017-04-03T00:22:50.563Z,7.38
2017-04-03T00:23:50.654Z,6.15
2017-04-03T00:24:51.151Z,6.37
2017-04-03T00:25:51.282Z,6.58
2017-04-03T00:26:52.098Z,6.58
2017-04-03T00:27:52.129Z,5.03
2017-04-03T00:28:52.206Z,5.82
2017-04-03T00:29:52.695Z,3.47
2017-04-03T00:30:52.856Z,6.12
2017-04-03T00:31:53.636Z,6.10
2017-04-03T00:32:53.660Z,6.33
2017-04-03T00:33:53.800Z,6.35
2017-04-03T00:34:54.842Z,4.83
2017-04-03T00:35:55.203Z,4.82
2017-04-03T00:36:55.288Z,5.67
2017-04-03T00:37:56.082Z,5.85
2017-04-03T00:38:56.132Z,4.27
2017-04-03T00:39:57.003Z,3.38
2017-04-03T00:40:57.727Z,6.57
2017-04-03T00:41:58.510Z,5.37
2017-04-03T00:42:58.554Z,5.33
2017-04-03T00:43:59.304Z,5.92
2017-04-03T00:44:59.796Z,5.70
2017-04-03T00:46:00.666Z,4.35
2017-04-03T00:47:00.693Z,3.97
2017-04-03T00:48:00.819Z,5.05
2017-04-03T00:49:00.935Z,5.10
2017-04-03T00:50:01.315Z,4.55
2017-04-03T00:51:01.380Z,6.23
2017-04-03T00:52:02.173Z,5.47
2017-04-03T00:53:02.146Z,5.10
2017-04-03T00:54:02.169Z,3.53
2017-04-03T00:55:02.516Z,5.18
2017-04-03T00:56:02.626Z,5.62
2017-04-03T00:57:03.382Z,4.72
2017-04-03T00:58:03.409Z,4.95
2017-04-03T00:59:03.459Z,4.70
2017-04-03T01:00:04.013Z,5.17
2017-04-03T01:01:04.130Z,3.42
2017-04-03T01:02:04.271Z,5.30
2017-04-03T01:03:04.414Z,4.27
2017-04-03T01:04:05.176Z,2.97
2017-04-03T01:05:06.224Z,4.90
2017-04-03T01:06:06.519Z,3.85
2017-04-03T01:07:06.507Z,4.47
2017-04-03T01:08:06.655Z,4.77
2017-04-03T01:09:06.858Z,3.52
2017-04-03T01:10:07.340Z,3.12
2017-04-03T01:11:08.122Z,3.98
2017-04-03T01:12:08.169Z,5.05
2017-04-03T01:13:08.530Z,4.68
2017-04-03T01:14:09.294Z,3.97
2017-04-03T01:15:10.407Z,2.90
2017-04-03T01:16:10.402Z,3.13
2017-04-03T01:17:10.521Z,3.75
2017-04-03T01:18:10.774Z,3.40
2017-04-03T01:19:11.509Z,2.57
2017-04-03T01:20:11.815Z,2.95
2017-04-03T01:21:11.950Z,3.10
2017-04-03T01:22:12.003Z,2.93
2017-04-03T01:23:12.015Z,3.33
2017-04-03T01:24:12.037Z,3.92
2017-04-03T01:25:12.403Z,3.97
2017-04-03T01:26:12.458Z,3.77
2017-04-03T01:27:13.254Z,2.73
2017-04-03T01:28:13.470Z,3.78
2017-04-03T01:29:13.541Z,3.60
2017-04-03T01:30:13.914Z,2.30
2017-04-03T01:31:13.944Z,3.52
2017-04-03T01:32:14.026Z,2.10
2017-04-03T01:33:14.126Z,2.95
2017-04-03T01:34:14.151Z,3.43
2017-04-03T01:35:14.482Z,3.05
2017-04-03T01:36:14.645Z,2.82
2017-04-03T01:37:14.693Z,3.53
2017-04-03T01:38:14.839Z,1.90
2017-04-03T01:39:15.999Z,2.05
2017-04-03T01:40:17.101Z,2.57
2017-04-03T01:41:17.171Z,3.03
2017-04-03T01:42:18.005Z,2.53
2017-04-03T01:43:18.248Z,2.37
2017-04-03T01:44:18.298Z,2.53
2017-04-03T01:45:19.533Z,3.20
2017-04-03T01:46:19.569Z,1.87
2017-04-03T01:47:19.578Z,2.27
2017-04-03T01:48:19.541Z,2.20
2017-04-03T01:49:19.603Z,1.93
2017-04-03T01:50:19.973Z,1.85
2017-04-03T01:51:21.241Z,2.30
2017-04-03T01:52:21.303Z,3.60
2017-04-03T01:53:21.307Z,1.93
2017-04-03T01:54:21.322Z,2.53
2017-04-03T01:55:21.737Z,2.60
2017-04-03T01:56:21.720Z,2.40
2017-04-03T01:57:21.873Z,2.35
2017-04-03T01:58:22.674Z,2.95
2017-04-03T01:59:22.696Z,2.73
2017-04-03T02:00:23.226Z,2.98
2017-04-03T02:01:23.249Z,1.63
2017-04-03T02:02:23.397Z,2.25
2017-04-03T02:03:23.646Z,3.27
2017-04-03T02:04:24.416Z,2.15
2017-04-03T02:05:24.478Z,2.90
2017-04-03T02:06:24.551Z,1.85
2017-04-03T02:07:24.591Z,2.70
2017-04-03T02:08:25.434Z,2.70
2017-04-03T02:09:26.164Z,3.17
2017-04-03T02:10:26.550Z,2.52
2017-04-03T02:11:26.588Z,3.17
2017-04-03T02:12:26.646Z,2.90
2017-04-03T02:13:26.794Z,2.80
2017-04-03T02:14:27.571Z,3.63
2017-04-03T02:15:27.970Z,2.53
2017-04-03T02:16:28.221Z,3.83
2017-04-03T02:17:28.287Z,3.90
2017-04-03T02:18:28.408Z,3.18
2017-04-03T02:19:28.436Z,2.80
2017-04-03T02:20:28.764Z,3.33
2017-04-03T02:21:29.220Z,2.93
2017-04-03T02:22:29.226Z,3.55
2017-04-03T02:23:29.252Z,2.70
2017-04-03T02:24:29.291Z,3.18
2017-04-03T02:25:29.733Z,2.52
2017-04-03T02:26:30.636Z,3.82
2017-04-03T02:27:30.774Z,3.55
2017-04-03T02:28:31.525Z,3.20
2017-04-03T02:29:31.543Z,2.70
2017-04-03T02:30:31.899Z,3.20
2017-04-03T02:31:31.969Z,3.38
2017-04-03T02:32:32.000Z,3.02
2017-04-03T02:33:32.035Z,2.70
2017-04-03T02:34:32.050Z,3.88
2017-04-03T02:35:32.558Z,2.52
2017-04-03T02:36:33.303Z,3.27
2017-04-03T02:37:33.439Z,3.05
2017-04-03T02:38:33.531Z,3.25
2017-04-03T02:39:33.575Z,3.75
2017-04-03T02:40:33.905Z,3.35
2017-04-03T02:41:33.931Z,3.32
2017-04-03T02:42:34.763Z,3.52
2017-04-03T02:43:34.798Z,3.50
2017-04-03T02:44:34.841Z,3.85
2017-04-03T02:45:35.242Z,3.52
2017-04-03T02:46:35.334Z,3.05
2017-04-03T02:47:36.176Z,3.57
2017-04-03T02:48:36.327Z,2.68
2017-04-03T02:49:37.093Z,2.58
2017-04-03T02:50:37.494Z,2.93
2017-04-03T02:51:37.599Z,3.42
2017-04-03T02:52:37.623Z,3.52
2017-04-03T02:53:38.468Z,3.42
2017-04-03T02:54:38.584Z,3.57
2017-04-03T02:55:39.060Z,3.32
2017-04-03T02:56:39.089Z,3.43
2017-04-03T02:57:39.130Z,3.17
2017-04-03T02:58:41.093Z,3.62
2017-04-03T02:59:41.905Z,3.83
2017-04-03T03:00:42.198Z,4.05
2017-04-03T03:01:42.219Z,3.23
2017-04-03T03:02:42.267Z,3.87
2017-04-03T03:03:42.414Z,3.58
2017-04-03T03:04:42.556Z,3.32
2017-04-03T03:05:43.704Z,3.28
2017-04-03T03:06:44.516Z,3.62
2017-04-03T03:07:44.609Z,3.35
2017-04-03T03:08:44.709Z,3.20
2017-04-03T03:09:44.756Z,3.77
2017-04-03T03:10:44.749Z,2.70
2017-04-03T03:11:44.770Z,3.42
2017-04-03T03:12:45.028Z,2.45
2017-04-03T03:13:45.145Z,2.63
2017-04-03T03:14:45.158Z,2.42
2017-04-03T03:15:45.702Z,3.20
2017-04-03T03:16:45.702Z,2.70
2017-04-03T03:17:45.754Z,3.02
2017-04-03T03:18:45.795Z,2.08
2017-04-03T03:19:45.865Z,2.72
2017-04-03T03:20:46.241Z,2.45
2017-04-03T03:21:46.259Z,2.00
2017-04-03T03:22:47.070Z,2.28
2017-04-03T03:23:47.149Z,2.83
2017-04-03T03:24:47.176Z,2.42
2017-04-03T03:25:47.622Z,2.02
2017-04-03T03:26:48.374Z,2.13
2017-04-03T03:27:48.395Z,2.40
2017-04-03T03:28:48.433Z,2.60
2017-04-03T03:29:48.484Z,2.60
2017-04-03T03:30:48.822Z,2.75
2017-04-03T03:31:48.923Z,2.07
2017-04-03T03:32:48.991Z,2.38
2017-04-03T03:33:49.178Z,2.53
2017-04-03T03:34:49.215Z,2.13
2017-04-03T03:35:49.559Z,2.12
2017-04-03T03:36:49.693Z,2.12
2017-04-03T03:37:49.702Z,2.05
2017-04-03T03:38:49.699Z,2.90
2017-04-03T03:39:49.753Z,1.95
2017-04-03T03:40:50.011Z,1.53
2017-04-03T03:41:50.137Z,2.02
2017-04-03T03:42:50.186Z,2.00
2017-04-03T03:43:50.906Z,2.30
2017-04-03T03:44:51.879Z,2.60
2017-04-03T03:45:52.351Z,2.10
2017-04-03T03:46:53.130Z,2.78
2017-04-03T03:47:53.986Z,2.13
2017-04-03T03:48:54.042Z,1.80
2017-04-03T03:49:54.098Z,2.67
2017-04-03T03:50:54.739Z,1.95
2017-04-03T03:51:54.746Z,1.68
2017-04-03T03:52:54.894Z,1.73
2017-04-03T03:53:54.906Z,1.87
2017-04-03T03:54:54.939Z,1.65
2017-04-03T03:55:59.515Z,1.77
2017-04-03T03:59:08.934Z,1.82
2017-04-03T04:00:09.027Z,1.32
2017-04-03T04:01:10.711Z,1.65
2017-04-03T04:02:10.813Z,1.62
2017-04-03T04:03:11.061Z,2.32
2017-04-03T04:04:11.205Z,1.85
2017-04-03T04:05:12.038Z,2.17
2017-04-03T04:06:12.478Z,2.03
2017-04-03T04:07:12.616Z,2.07
2017-04-03T04:08:12.790Z,2.05
2017-04-03T04:09:12.907Z,2.08
2017-04-03T04:10:13.151Z,2.42
2017-04-03T04:11:13.510Z,1.83
2017-04-03T04:12:14.300Z,1.87
2017-04-03T04:13:14.431Z,1.67
2017-04-03T04:14:14.527Z,2.30
2017-04-03T04:15:14.557Z,2.33
2017-04-03T04:16:15.634Z,2.25
2017-04-03T04:17:15.716Z,2.83
2017-04-03T04:18:15.798Z,2.78
2017-04-03T04:19:15.804Z,3.02
2017-04-03T04:20:15.827Z,2.05
2017-04-03T04:21:16.958Z,2.77
2017-04-03T04:22:17.833Z,2.12
2017-04-03T04:23:17.895Z,2.27
2017-04-03T04:24:17.935Z,2.77
2017-04-03T04:25:18.028Z,2.45
2017-04-03T04:26:18.413Z,2.52
2017-04-03T04:27:19.405Z,2.55
2017-04-03T04:28:19.488Z,2.25
2017-04-03T04:29:19.494Z,3.02
2017-04-03T04:30:19.543Z,2.95
2017-04-03T04:31:19.903Z,3.40
2017-04-03T04:32:19.952Z,2.98
2017-04-03T04:33:20.210Z,2.95
2017-04-03T04:34:20.387Z,2.90
2017-04-03T04:35:20.449Z,2.67
2017-04-03T04:36:20.831Z,2.97
2017-04-03T04:37:20.879Z,2.75
2017-04-03T04:38:20.906Z,2.63
2017-04-03T04:39:20.931Z,2.45
2017-04-03T04:40:21.050Z,2.45
2017-04-03T04:41:21.387Z,2.77
2017-04-03T04:42:22.178Z,2.72
2017-04-03T04:43:22.246Z,2.70
2017-04-03T04:44:22.327Z,2.50
2017-04-03T04:45:22.363Z,2.90
2017-04-03T04:46:22.842Z,2.65
2017-04-03T04:47:22.902Z,2.80
2017-04-03T04:48:22.975Z,2.43
2017-04-03T04:49:23.097Z,2.90
2017-04-03T04:50:23.342Z,2.42
2017-04-03T04:51:23.682Z,2.35
2017-04-03T04:52:23.742Z,2.57
2017-04-03T04:53:23.763Z,2.32
2017-04-03T04:54:23.817Z,2.38
2017-04-03T04:55:24.747Z,2.95
2017-04-03T04:56:25.733Z,2.55
2017-04-03T04:57:25.789Z,1.90
2017-04-03T04:58:26.592Z,2.95
2017-04-03T04:59:26.627Z,2.60
2017-04-03T05:00:26.663Z,2.17
2017-04-03T05:01:27.989Z,2.25
2017-04-03T05:02:28.090Z,2.63
2017-04-03T05:03:28.151Z,2.47
2017-04-03T05:04:28.336Z,2.80
2017-04-03T05:05:28.405Z,2.23
2017-04-03T05:06:28.878Z,2.65
2017-04-03T05:07:29.968Z,2.98
2017-04-03T05:08:30.000Z,2.28
2017-04-03T05:09:29.998Z,1.98
2017-04-03T05:10:30.076Z,2.48
2017-04-03T05:11:31.243Z,2.55
2017-04-03T05:12:31.358Z,2.32
2017-04-03T05:13:31.462Z,2.02
2017-04-03T05:14:31.702Z,2.05
2017-04-03T05:15:31.759Z,2.50
2017-04-03T05:16:32.252Z,2.40
2017-04-03T05:17:33.080Z,2.23
2017-04-03T05:18:33.947Z,1.85
2017-04-03T05:19:34.011Z,2.33
2017-04-03T05:20:34.796Z,1.72
2017-04-03T05:21:35.262Z,1.90
2017-04-03T05:22:36.043Z,2.72
2017-04-03T05:23:36.160Z,2.90
2017-04-03T05:24:36.215Z,1.87
2017-04-03T05:25:36.297Z,2.48
2017-04-03T05:26:36.490Z,2.18
2017-04-03T05:27:36.482Z,1.88
2017-04-03T05:28:36.573Z,1.98
2017-04-03T05:29:36.768Z,2.25
2017-04-03T05:30:36.871Z,1.60
2017-04-03T05:31:37.371Z,2.27
2017-04-03T05:32:37.414Z,2.25
2017-04-03T05:33:37.508Z,2.23
2017-04-03T05:34:37.587Z,1.87
2017-04-03T05:35:38.347Z,1.83
2017-04-03T05:36:38.959Z,1.58
2017-04-03T05:37:38.998Z,1.83
2017-04-03T05:38:39.053Z,2.17
2017-04-03T05:39:39.135Z,2.63
2017-04-03T05:40:39.219Z,2.13
2017-04-03T05:41:39.780Z,2.48
2017-04-03T05:42:40.612Z,2.05
2017-04-03T05:43:41.450Z,1.88
2017-04-03T05:44:41.504Z,1.95
2017-04-03T05:45:41.552Z,2.10
2017-04-03T05:46:42.987Z,1.85
2017-04-03T05:47:43.176Z,2.15
2017-04-03T05:48:43.206Z,1.85
2017-04-03T05:49:43.960Z,2.15
2017-04-03T05:50:43.986Z,2.37
2017-04-03T05:51:44.368Z,2.42
2017-04-03T05:52:44.618Z,2.28
2017-04-03T05:53:44.635Z,2.03
2017-04-03T05:54:44.668Z,1.87
2017-04-03T05:55:44.708Z,2.30
2017-04-03T05:56:45.201Z,1.95
2017-04-03T05:57:45.320Z,2.18
2017-04-03T05:58:46.127Z,1.72
2017-04-03T05:59:46.270Z,1.90
2017-04-03T06:00:46.420Z,1.92
2017-04-03T06:01:46.917Z,2.15
2017-04-03T06:02:46.970Z,2.13
2017-04-03T06:03:47.152Z,1.75
2017-04-03T06:04:47.202Z,2.53
2017-04-03T06:05:47.289Z,2.07
2017-04-03T06:06:47.611Z,2.52
2017-04-03T06:07:47.845Z,2.18
2017-04-03T06:08:47.874Z,2.25
2017-04-03T06:09:47.965Z,2.02
2017-04-03T06:10:47.994Z,2.10
2017-04-03T06:11:48.306Z,2.65
2017-04-03T06:12:48.387Z,2.80
2017-04-03T06:13:49.175Z,2.77
2017-04-03T06:14:49.233Z,2.25
2017-04-03T06:15:49.302Z,2.45
2017-04-03T06:16:49.664Z,2.65
2017-04-03T06:17:49.874Z,2.85
2017-04-03T06:18:50.882Z,2.25
2017-04-03T06:19:50.944Z,2.60
2017-04-03T06:20:51.385Z,2.95
2017-04-03T06:21:51.683Z,3.10
2017-04-03T06:22:51.810Z,2.08
2017-04-03T06:23:52.199Z,2.23
2017-04-03T06:24:52.257Z,2.17
2017-04-03T06:25:53.424Z,1.97
2017-04-03T06:26:53.894Z,1.90
2017-04-03T06:27:54.743Z,1.92
2017-04-03T06:28:54.862Z,2.65
2017-04-03T06:29:55.062Z,2.40
2017-04-03T06:30:54.350Z,1.63
2017-04-03T06:31:54.640Z,2.07
2017-04-03T06:32:55.471Z,2.90
2017-04-03T06:33:56.284Z,2.27
2017-04-03T06:34:56.485Z,2.00
2017-04-03T06:35:58.118Z,2.50
2017-04-03T06:36:58.688Z,1.55
2017-04-03T06:37:58.693Z,2.30
2017-04-03T06:38:58.751Z,2.28
2017-04-03T06:39:58.838Z,2.47
2017-04-03T06:40:58.951Z,2.43
2017-04-03T06:41:59.510Z,2.65
2017-04-03T06:42:59.645Z,2.15
2017-04-03T06:44:00.438Z,2.20
2017-04-03T06:45:00.538Z,1.98
2017-04-03T06:46:00.719Z,2.38
2017-04-03T06:47:02.674Z,2.55
2017-04-03T06:48:02.831Z,2.17
2017-04-03T06:49:03.870Z,2.57
2017-04-03T06:50:04.704Z,2.32
2017-04-03T06:51:05.500Z,2.45
2017-04-03T06:52:06.083Z,2.95
2017-04-03T06:53:06.162Z,3.08
2017-04-03T06:54:06.258Z,2.27
2017-04-03T06:55:07.098Z,1.93
2017-04-03T06:56:07.375Z,3.20
2017-04-03T06:57:07.818Z,2.27
2017-04-03T06:58:08.594Z,3.33
2017-04-03T06:59:08.642Z,2.50
2017-04-03T07:00:09.382Z,3.50
2017-04-03T07:01:09.512Z,2.28
2017-04-03T07:02:09.886Z,2.48
2017-04-03T07:03:10.036Z,2.18
2017-04-03T07:04:10.063Z,2.67
2017-04-03T07:05:10.307Z,3.23
2017-04-03T07:06:10.479Z,3.00
2017-04-03T07:07:10.975Z,3.12
2017-04-03T07:08:11.042Z,2.70
2017-04-03T07:09:11.121Z,2.98
2017-04-03T07:10:11.245Z,2.50
2017-04-03T07:11:11.408Z,2.80
2017-04-03T07:12:11.824Z,2.97
2017-04-03T07:13:12.098Z,2.95
2017-04-03T07:14:12.257Z,3.50
2017-04-03T07:15:12.327Z,2.40
2017-04-03T07:16:12.479Z,2.95
2017-04-03T07:17:12.837Z,2.27
2017-04-03T07:18:12.934Z,2.50
2017-04-03T07:19:12.970Z,3.42
2017-04-03T07:20:13.787Z,3.12
2017-04-03T07:21:13.871Z,2.23
2017-04-03T07:22:14.250Z,2.40
2017-04-03T07:23:14.282Z,3.35
2017-04-03T07:24:14.567Z,2.93
2017-04-03T07:25:14.682Z,2.50
2017-04-03T07:26:14.738Z,2.43
2017-04-03T07:27:15.137Z,3.40
2017-04-03T07:28:15.194Z,3.45
2017-04-03T07:29:15.532Z,2.82
2017-04-03T07:30:15.630Z,3.48
2017-04-03T07:31:15.695Z,2.25
2017-04-03T07:32:16.069Z,3.20
2017-04-03T07:33:16.139Z,1.98
2017-04-03T07:34:16.389Z,2.43
2017-04-03T07:35:16.440Z,2.15
2017-04-03T07:36:16.678Z,1.92
2017-04-03T07:37:16.997Z,2.57
2017-04-03T07:38:17.205Z,2.05
2017-04-03T07:39:17.379Z,2.05
2017-04-03T07:40:17.479Z,2.65
2017-04-03T07:41:17.523Z,2.42
2017-04-03T07:42:18.611Z,2.38
2017-04-03T07:43:18.680Z,3.05
2017-04-03T07:44:18.811Z,2.05
2017-04-03T07:45:18.936Z,1.80
2017-04-03T07:46:19.023Z,3.58
2017-04-03T07:47:19.520Z,2.97
2017-04-03T07:48:19.629Z,2.40
2017-04-03T07:49:19.687Z,2.60
2017-04-03T07:50:19.734Z,1.65
2017-04-03T07:51:19.788Z,1.90
2017-04-03T07:52:20.249Z,2.47
2017-04-03T07:53:20.319Z,1.40
2017-04-03T07:54:20.418Z,2.85
2017-04-03T07:55:20.508Z,1.65
2017-04-03T07:56:20.543Z,2.90
2017-04-03T07:57:20.953Z,2.10
2017-04-03T07:58:21.026Z,2.68
2017-04-03T07:59:21.173Z,1.82
2017-04-03T08:00:21.252Z,2.88
2017-04-03T08:01:21.307Z,2.68
2017-04-03T08:02:21.615Z,2.68
2017-04-03T08:03:21.766Z,2.40
2017-04-03T08:04:21.883Z,2.37
2017-04-03T08:05:21.931Z,2.50
2017-04-03T08:06:21.973Z,2.70
2017-04-03T08:07:23.109Z,2.70
2017-04-03T08:08:23.954Z,2.25
2017-04-03T08:09:24.727Z,2.73
2017-04-03T08:10:24.842Z,2.85
2017-04-03T08:11:24.917Z,2.68
2017-04-03T08:12:25.441Z,2.18
2017-04-03T08:13:26.380Z,1.63
2017-04-03T08:14:26.409Z,2.32
2017-04-03T08:15:26.491Z,2.50
2017-04-03T08:16:26.520Z,1.95
2017-04-03T08:17:26.876Z,2.20
2017-04-03T08:18:26.908Z,1.98
2017-04-03T08:19:26.977Z,2.08
2017-04-03T08:20:27.778Z,2.67
2017-04-03T08:21:27.853Z,2.10
2017-04-03T08:22:28.337Z,1.88
2017-04-03T08:23:28.437Z,2.12
2017-04-03T08:24:29.339Z,3.63
2017-04-03T08:25:29.565Z,2.00
2017-04-03T08:26:29.595Z,1.77
2017-04-03T08:27:29.974Z,1.75
2017-04-03T08:28:30.069Z,1.43
2017-04-03T08:29:30.147Z,1.72
2017-04-03T08:30:30.162Z,1.83
2017-04-03T08:31:30.310Z,1.85
2017-04-03T08:32:30.663Z,1.77
2017-04-03T08:33:30.749Z,1.32
2017-04-03T08:34:31.787Z,1.12
2017-04-03T08:35:31.907Z,1.60
2017-04-03T08:36:32.034Z,1.77
2017-04-03T08:37:32.495Z,1.53
2017-04-03T08:38:32.728Z,3.02
2017-04-03T08:39:33.543Z,1.42
2017-04-03T08:40:34.385Z,1.65
2017-04-03T08:41:35.155Z,1.30
2017-04-03T08:42:35.754Z,1.78
2017-04-03T08:43:35.895Z,1.53
2017-04-03T08:44:36.695Z,1.27
2017-04-03T08:45:37.466Z,1.30
2017-04-03T08:46:37.499Z,1.48
2017-04-03T08:47:37.580Z,1.60
2017-04-03T08:48:37.645Z,1.32
2017-04-03T08:49:37.873Z,1.40
2017-04-03T08:50:37.960Z,1.72
2017-04-03T08:51:38.056Z,1.30
2017-04-03T08:52:38.421Z,1.28
2017-04-03T08:53:38.490Z,0.98
2017-04-03T08:54:38.541Z,1.27
2017-04-03T08:55:38.566Z,1.42
2017-04-03T08:56:39.394Z,1.50
2017-04-03T08:57:42.069Z,1.18
2017-04-03T08:58:42.102Z,1.27
2017-04-03T08:59:42.181Z,0.88
2017-04-03T09:00:42.250Z,1.12
2017-04-03T09:01:42.349Z,1.67
2017-04-03T09:02:43.006Z,1.02
2017-04-03T09:03:43.979Z,1.18
2017-04-03T09:04:44.186Z,1.22
2017-04-03T09:05:44.268Z,1.27
2017-04-03T09:06:45.031Z,1.15
2017-04-03T09:07:45.422Z,0.73
2017-04-03T09:08:45.538Z,1.92
2017-04-03T09:09:45.746Z,1.23
2017-04-03T09:10:45.846Z,1.13
2017-04-03T09:11:45.980Z,1.50
2017-04-03T09:12:46.428Z,1.05
2017-04-03T09:13:46.631Z,0.93
2017-04-03T09:14:46.738Z,0.88
2017-04-03T09:15:46.779Z,0.93
2017-04-03T09:16:46.850Z,0.88
2017-04-03T09:17:47.425Z,0.72
2017-04-03T09:18:47.478Z,0.90
2017-04-03T09:19:47.555Z,0.95
2017-04-03T09:20:47.587Z,0.83
2017-04-03T09:21:48.222Z,0.93
2017-04-03T09:22:48.679Z,1.22
2017-04-03T09:23:49.471Z,1.07
2017-04-03T09:24:49.499Z,0.90
2017-04-03T09:25:50.315Z,1.13
2017-04-03T09:26:50.455Z,0.80
2017-04-03T09:27:51.286Z,0.87
2017-04-03T09:28:51.378Z,1.12
2017-04-03T09:29:52.323Z,0.82
2017-04-03T09:30:52.510Z,0.72
2017-04-03T09:31:53.287Z,0.97
2017-04-03T09:32:53.663Z,0.70
2017-04-03T09:33:54.582Z,0.65
2017-04-03T09:34:55.397Z,1.03
2017-04-03T09:35:55.498Z,0.85
2017-04-03T09:36:55.601Z,1.20
2017-04-03T09:37:56.071Z,0.67
2017-04-03T09:38:56.125Z,0.90
2017-04-03T09:39:56.223Z,0.87
2017-04-03T09:40:56.318Z,1.02
2017-04-03T09:41:57.172Z,0.88
2017-04-03T09:42:57.613Z,0.85
2017-04-03T09:43:58.450Z,1.40
2017-04-03T09:44:58.528Z,1.00
2017-04-03T09:45:58.673Z,1.30
2017-04-03T09:46:58.754Z,1.13
2017-04-03T09:47:59.173Z,0.90
2017-04-03T09:48:59.982Z,1.40
2017-04-03T09:50:00.118Z,0.98
2017-04-03T09:51:06.535Z,1.32
2017-04-03T09:52:06.792Z,0.97
2017-04-03T09:53:07.943Z,1.73
2017-04-03T09:54:08.026Z,1.38
2017-04-03T09:55:08.875Z,1.10
2017-04-03T09:56:09.047Z,0.80
2017-04-03T09:57:09.316Z,1.37
2017-04-03T09:58:10.711Z,1.00
2017-04-03T09:59:10.858Z,1.27
2017-04-03T10:00:11.103Z,0.85
2017-04-03T10:01:11.258Z,1.12
2017-04-03T10:02:11.398Z,1.70
2017-04-03T10:03:11.745Z,1.18
2017-04-03T10:04:11.859Z,0.92
2017-04-03T10:05:12.086Z,0.92
2017-04-03T10:06:12.971Z,1.12
2017-04-03T10:07:13.272Z,0.88
2017-04-03T10:08:13.846Z,1.02
2017-04-03T10:09:14.670Z,1.17
2017-04-03T10:10:15.441Z,1.37
2017-04-03T10:11:15.639Z,0.85
2017-04-03T10:12:15.960Z,1.05
2017-04-03T10:13:16.852Z,0.92
2017-04-03T10:14:17.851Z,0.88
2017-04-03T10:15:17.960Z,0.90
2017-04-03T10:16:18.258Z,0.87
2017-04-03T10:17:18.326Z,0.92
2017-04-03T10:18:18.851Z,0.85
2017-04-03T10:19:19.048Z,1.08
2017-04-03T10:20:19.894Z,0.92
2017-04-03T10:21:20.865Z,0.85
2017-04-03T10:22:20.977Z,0.95
2017-04-03T10:23:21.376Z,1.10
2017-04-03T10:24:21.559Z,1.13
2017-04-03T10:25:21.657Z,1.23
2017-04-03T10:26:21.924Z,0.95
2017-04-03T10:27:22.022Z,0.98
2017-04-03T10:28:22.622Z,1.10
2017-04-03T10:29:22.738Z,0.90
2017-04-03T10:30:22.799Z,1.53
2017-04-03T10:31:23.608Z,0.93
2017-04-03T10:32:24.620Z,1.67
2017-04-03T10:33:25.194Z,1.18
2017-04-03T10:34:25.311Z,1.25
2017-04-03T10:35:25.442Z,1.18
2017-04-03T10:36:25.609Z,1.23
2017-04-03T10:37:26.402Z,1.00
2017-04-03T10:38:26.491Z,1.33
2017-04-03T10:39:26.556Z,1.43
2017-04-03T10:40:27.614Z,1.77
2017-04-03T10:41:27.746Z,1.52
2017-04-03T10:42:27.827Z,1.37
2017-04-03T10:43:28.296Z,0.80
2017-04-03T10:44:29.373Z,0.80
2017-04-03T10:45:29.381Z,1.47
2017-04-03T10:46:29.497Z,1.00
2017-04-03T10:47:29.553Z,1.25
2017-04-03T10:48:30.708Z,1.55
2017-04-03T10:49:30.786Z,1.10
2017-04-03T10:50:31.645Z,1.25
2017-04-03T10:51:31.719Z,1.47
2017-04-03T10:52:35.265Z,0.93
2017-04-03T10:53:37.767Z,0.88
2017-04-03T10:54:37.943Z,1.27
2017-04-03T10:55:38.086Z,0.80
2017-04-03T10:56:43.675Z,1.20
2017-04-03T10:58:19.081Z,1.72
2017-04-03T10:59:19.185Z,1.63
2017-04-03T11:00:19.932Z,1.35
2017-04-03T11:01:20.175Z,1.00
2017-04-03T11:02:20.355Z,1.02
2017-04-03T11:03:20.419Z,1.03
2017-04-03T11:04:20.975Z,1.03
2017-04-03T11:05:21.137Z,1.00
2017-04-03T11:06:21.357Z,1.43
2017-04-03T11:07:21.484Z,1.70
2017-04-03T11:08:22.323Z,1.48
2017-04-03T11:09:23.452Z,1.27
2017-04-03T11:10:24.251Z,1.00
2017-04-03T11:11:24.371Z,1.48
2017-04-03T11:12:24.438Z,1.13
2017-04-03T11:13:24.508Z,1.37
2017-04-03T11:14:25.642Z,1.20
2017-04-03T11:15:26.500Z,1.23
2017-04-03T11:16:26.746Z,1.65
2017-04-03T11:17:26.797Z,1.57
2017-04-03T11:18:27.695Z,1.17
2017-04-03T11:19:28.075Z,0.85
2017-04-03T11:20:28.202Z,1.15
2017-04-03T11:21:28.353Z,1.27
2017-04-03T11:22:29.199Z,0.85
2017-04-03T11:23:29.296Z,0.98
2017-04-03T11:24:29.910Z,1.08
2017-04-03T11:25:31.296Z,1.07
2017-04-03T11:26:31.496Z,1.77
2017-04-03T11:27:31.566Z,1.02
2017-04-03T11:28:31.726Z,0.80
2017-04-03T11:29:32.133Z,0.93
2017-04-03T11:30:32.225Z,1.08
2017-04-03T11:31:32.348Z,1.12
2017-04-03T11:32:32.450Z,1.15
2017-04-03T11:33:32.595Z,1.08
2017-04-03T11:34:33.059Z,1.53
2017-04-03T11:35:33.066Z,0.77
2017-04-03T11:36:33.141Z,1.83
2017-04-03T11:37:34.027Z,0.98
2017-04-03T11:38:34.277Z,0.72
2017-04-03T11:39:34.709Z,1.17
2017-04-03T11:40:35.618Z,1.20
2017-04-03T11:41:36.594Z,0.60
2017-04-03T11:42:40.924Z,1.07
2017-04-03T11:43:41.973Z,0.93
2017-04-03T11:44:46.506Z,1.23
2017-04-03T11:45:47.896Z,1.13
2017-04-03T11:46:53.251Z,1.23
2017-04-03T11:47:55.126Z,1.07
2017-04-03T11:49:01.304Z,1.53
2017-04-03T11:50:07.040Z,1.35
2017-04-03T11:53:20.262Z,1.10
2017-04-03T11:54:21.124Z,0.58
2017-04-03T11:55:21.411Z,0.87
2017-04-03T11:56:20.730Z,1.15
2017-04-03T11:57:20.854Z,1.03
2017-04-03T11:58:21.006Z,1.15
2017-04-03T11:59:21.113Z,1.10
2017-04-03T12:00:22.352Z,1.52
2017-04-03T12:01:22.560Z,1.12
2017-04-03T12:02:22.754Z,1.55
2017-04-03T12:03:23.682Z,1.20
2017-04-03T12:04:23.959Z,0.85
2017-04-03T12:05:24.400Z,1.15
2017-04-03T12:06:24.444Z,1.12
2017-04-03T12:07:25.278Z,0.88
2017-04-03T12:08:25.482Z,1.27
2017-04-03T12:09:26.858Z,1.27
2017-04-03T12:10:26.997Z,1.18
2017-04-03T12:11:27.960Z,0.90
2017-04-03T12:12:28.124Z,1.18
2017-04-03T12:13:28.408Z,1.00
2017-04-03T12:14:28.723Z,1.35
2017-04-03T12:15:29.121Z,1.43
2017-04-03T12:16:29.328Z,1.12
2017-04-03T12:17:30.112Z,1.07
2017-04-03T12:18:30.752Z,1.48
2017-04-03T12:19:31.106Z,1.42
2017-04-03T12:20:31.543Z,0.63
2017-04-03T12:21:31.744Z,1.02
2017-04-03T12:22:31.923Z,1.37
2017-04-03T12:23:32.127Z,1.87
2017-04-03T12:24:32.420Z,1.20
2017-04-03T12:25:33.719Z,1.35
2017-04-03T12:26:33.926Z,1.43
2017-04-03T12:27:34.849Z,1.25
2017-04-03T12:28:34.886Z,1.15
2017-04-03T12:29:34.307Z,1.33
2017-04-03T12:30:40.062Z,0.88
2017-04-03T12:31:40.913Z,0.77
2017-04-03T12:32:41.019Z,1.13
2017-04-03T12:33:41.140Z,1.17
2017-04-03T12:34:41.365Z,0.80
2017-04-03T12:35:41.641Z,0.90
2017-04-03T12:36:41.894Z,1.02
2017-04-03T12:37:42.002Z,1.15
2017-04-03T12:38:42.061Z,1.03
2017-04-03T12:39:42.120Z,1.02
2017-04-03T12:40:42.687Z,1.42
2017-04-03T12:41:43.566Z,1.00
2017-04-03T12:42:43.791Z,0.58
2017-04-03T12:43:44.137Z,1.10
2017-04-03T12:44:44.195Z,0.97
2017-04-03T12:45:44.717Z,0.85
2017-04-03T12:46:44.840Z,1.07
2017-04-03T12:47:45.037Z,1.02
2017-04-03T12:48:45.164Z,0.60
2017-04-03T12:49:45.795Z,0.97
2017-04-03T12:50:46.983Z,0.95
2017-04-03T12:51:47.179Z,1.58
2017-04-03T12:52:47.393Z,1.28
2017-04-03T12:53:47.532Z,0.95
2017-04-03T12:54:47.610Z,0.98
2017-04-03T12:55:48.267Z,1.35
2017-04-03T12:56:48.413Z,0.93
2017-04-03T12:57:48.550Z,1.35
2017-04-03T12:58:48.675Z,1.15
2017-04-03T12:59:49.351Z,1.22
2017-04-03T13:00:50.587Z,1.13
2017-04-03T13:01:50.735Z,1.10
2017-04-03T13:02:50.805Z,1.20
2017-04-03T13:03:50.960Z,1.30
2017-04-03T13:04:51.021Z,1.13
2017-04-03T13:05:51.472Z,1.03
2017-04-03T13:06:51.551Z,0.82
2017-04-03T13:07:51.607Z,1.35
2017-04-03T13:08:51.675Z,1.05
2017-04-03T13:09:52.558Z,1.00
2017-04-03T13:10:52.653Z,0.92
2017-04-03T13:11:52.856Z,1.08
2017-04-03T13:12:54.174Z,1.30
2017-04-03T13:13:54.349Z,0.90
2017-04-03T13:14:55.178Z,1.28
2017-04-03T13:15:57.130Z,0.88
2017-04-03T13:16:57.924Z,0.63
2017-04-03T13:17:57.996Z,0.83
2017-04-03T13:18:58.066Z,1.10
2017-04-03T13:19:58.878Z,0.75
2017-04-03T13:20:59.187Z,1.30
2017-04-03T13:21:59.222Z,0.80
2017-04-03T13:23:00.110Z,0.90
2017-04-03T13:24:00.231Z,1.13
2017-04-03T13:25:00.430Z,0.88
2017-04-03T13:26:00.878Z,1.00
2017-04-03T13:27:00.956Z,0.92
2017-04-03T13:28:01.046Z,0.75
2017-04-03T13:29:02.350Z,1.27